Williamstown, Kentucky
Current Conditions -  °F | °C
As of 3:52 PM on Friday 19 Dec 2014 (Local Time) from KCVG Reporting Station
Overcast Overcast  
Wind Chill: 31°   Ceiling: 2300
Heat Index: 31°   Visibility: 7mi
Dew Point: 18°   Wind: 0mph
Humidity: 59%   Direction: NA
Pressure: 30.25"   Gusts: NA
Location:  38.64°N, 84.56°W
Report Text: KCVG 192052Z 00000KT 7SM OVC023 M01/M08 A3025 RMK AO2 SLP252 T10061078 55002
Loading
Personal Weather Stations






























Interactive Weather Map New forecast layout! Learn more

10-Day Weather Forecast

Advertisements
Track Severe Weather on mobile